createdAt,value
2019-01-17T00:00:10.485Z,99714.74
2019-01-17T00:02:44.242Z,99721.60
2019-01-17T00:05:27.142Z,99727.79
2019-01-17T00:07:55.201Z,99728.48
2019-01-17T00:10:40.238Z,99726.61
2019-01-17T00:13:20.071Z,99728.79
2019-01-17T00:16:00.254Z,99729.16
2019-01-17T00:18:40.443Z,99725.47
2019-01-17T00:21:17.164Z,99725.12
2019-01-17T00:23:45.225Z,99732.83
2019-01-17T00:26:13.277Z,99731.81
2019-01-17T00:28:46.974Z,99732.16
2019-01-17T00:31:18.239Z,99733.15
2019-01-17T00:33:46.299Z,99736.17
2019-01-17T00:36:23.029Z,99736.01
2019-01-17T00:38:53.662Z,99736.84
2019-01-17T00:41:39.604Z,99730.64
2019-01-17T00:44:23.958Z,99726.30
2019-01-17T00:47:03.892Z,99735.50
2019-01-17T00:49:43.860Z,99733.34
2019-01-17T00:52:28.555Z,99734.35
2019-01-17T00:55:08.440Z,99735.34
2019-01-17T01:01:07.241Z,99731.66
2019-01-17T01:03:35.292Z,99732.83
2019-01-17T01:06:15.183Z,99734.48
2019-01-17T01:08:52.411Z,99725.44
2019-01-17T01:11:35.664Z,99726.61
2019-01-17T01:14:18.831Z,99726.13
2019-01-17T01:16:56.623Z,99729.46
2019-01-17T01:19:24.687Z,99733.30
2019-01-17T01:21:52.741Z,99727.44
2019-01-17T01:24:23.423Z,99727.80
2019-01-17T01:27:08.050Z,99723.77
2019-01-17T01:29:52.644Z,99725.54
2019-01-17T01:32:37.532Z,99725.19
2019-01-17T01:35:15.253Z,99727.21
2019-01-17T01:37:45.836Z,99730.16
2019-01-17T01:40:13.895Z,99722.55
2019-01-17T01:42:50.891Z,99729.36
2019-01-17T01:45:18.948Z,99725.59
2019-01-17T01:47:47.007Z,99726.68
2019-01-17T01:50:20.982Z,99726.70
2019-01-17T01:53:05.395Z,99726.38
2019-01-17T01:55:31.791Z,99724.86
2019-01-17T01:57:58.046Z,99725.05
2019-01-17T02:00:24.205Z,99728.78
2019-01-17T02:02:50.394Z,99731.14
2019-01-17T02:05:16.547Z,99725.23
2019-01-17T02:07:43.095Z,99726.27
2019-01-17T02:10:10.094Z,99727.45
2019-01-17T02:12:36.251Z,99723.92
2019-01-17T02:15:02.704Z,99726.63
2019-01-17T02:17:28.886Z,99716.73
2019-01-17T02:19:55.541Z,99716.70
2019-01-17T02:22:21.698Z,99717.66
2019-01-17T02:24:47.989Z,99714.99
2019-01-17T02:27:14.139Z,99710.11
2019-01-17T02:29:40.295Z,99708.28
2019-01-17T02:32:06.497Z,99713.78
2019-01-17T02:34:32.650Z,99712.24
2019-01-17T02:36:58.801Z,99705.40
2019-01-17T02:39:24.990Z,99707.61
2019-01-17T02:41:51.273Z,99709.50
2019-01-17T02:44:17.436Z,99712.19
2019-01-17T02:46:43.625Z,99707.58
2019-01-17T02:49:09.780Z,99711.87
2019-01-17T02:51:35.938Z,99712.00
2019-01-17T02:54:02.136Z,99714.27
2019-01-17T02:56:28.290Z,99713.30
2019-01-17T02:58:54.440Z,99716.83
2019-01-17T03:01:20.630Z,99713.02
2019-01-17T03:03:46.782Z,99708.06
2019-01-17T03:06:12.942Z,99711.64
2019-01-17T03:08:39.123Z,99714.11
2019-01-17T03:11:05.281Z,99713.30
2019-01-17T03:13:31.438Z,99706.58
2019-01-17T03:15:57.739Z,99705.13
2019-01-17T03:18:24.002Z,99707.97
2019-01-17T03:20:50.171Z,99703.27
2019-01-17T03:23:16.353Z,99714.61
2019-01-17T03:25:42.516Z,99710.30
2019-01-17T03:28:08.667Z,99706.17
2019-01-17T03:30:34.854Z,99698.99
2019-01-17T03:33:01.022Z,99699.90
2019-01-17T03:35:27.158Z,99699.40
2019-01-17T03:37:53.460Z,99702.05
2019-01-17T03:40:19.728Z,99694.92
2019-01-17T03:42:45.891Z,99695.55
2019-01-17T03:45:12.923Z,99697.80
2019-01-17T03:47:39.084Z,99694.16
2019-01-17T03:50:13.300Z,99694.78
2019-01-17T03:52:39.897Z,99696.55
2019-01-17T03:55:08.955Z,99698.13
2019-01-17T03:57:35.212Z,99691.61
2019-01-17T04:00:01.829Z,99697.14
2019-01-17T04:02:27.989Z,99691.08
2019-01-17T04:04:54.196Z,99701.56
2019-01-17T04:07:20.393Z,99695.11
2019-01-17T04:09:46.554Z,99694.73
2019-01-17T04:12:12.717Z,99697.65
2019-01-17T04:14:38.904Z,99700.56
2019-01-17T04:17:05.163Z,99696.07
2019-01-17T04:19:31.318Z,99694.99
2019-01-17T04:21:57.552Z,99686.27
2019-01-17T04:24:23.669Z,99687.22
2019-01-17T04:26:49.824Z,99690.47
2019-01-17T04:29:16.014Z,99688.52
2019-01-17T04:31:42.170Z,99700.02
2019-01-17T04:34:09.434Z,99699.89
2019-01-17T04:36:35.720Z,99705.58
2019-01-17T04:39:02.085Z,99707.27
2019-01-17T04:41:28.239Z,99706.84
2019-01-17T04:43:54.549Z,99710.11
2019-01-17T04:46:20.739Z,99709.53
2019-01-17T04:48:47.001Z,99708.92
2019-01-17T04:51:13.217Z,99707.77
2019-01-17T04:53:39.365Z,99711.11
2019-01-17T04:56:05.527Z,99711.40
2019-01-17T04:58:31.708Z,99709.66
2019-01-17T05:00:57.874Z,99707.52
2019-01-17T05:03:24.039Z,99716.09
2019-01-17T05:05:50.331Z,99716.48
2019-01-17T05:08:17.023Z,99706.20
2019-01-17T05:10:43.172Z,99712.61
2019-01-17T05:13:09.363Z,99718.19
2019-01-17T05:15:35.527Z,99720.55
2019-01-17T05:18:01.687Z,99712.37
2019-01-17T05:20:27.997Z,99718.28
2019-01-17T05:22:54.255Z,99714.62
2019-01-17T05:25:20.509Z,99712.45
2019-01-17T05:27:46.709Z,99719.81
2019-01-17T05:30:15.281Z,99712.63
2019-01-17T05:32:41.556Z,99715.95
2019-01-17T05:35:07.942Z,99713.98
2019-01-17T05:37:34.096Z,99717.02
2019-01-17T05:40:00.358Z,99717.67
2019-01-17T05:42:26.648Z,99723.76
2019-01-17T05:44:52.803Z,99722.41
2019-01-17T05:47:18.955Z,99711.99
2019-01-17T05:49:45.176Z,99719.33
2019-01-17T05:52:11.336Z,99720.01
2019-01-17T05:54:37.493Z,99717.67
2019-01-17T05:57:03.686Z,99711.58
2019-01-17T05:59:29.890Z,99717.27
2019-01-17T06:01:56.055Z,99717.92
2019-01-17T06:04:22.246Z,99714.30
2019-01-17T06:06:48.407Z,99712.22
2019-01-17T06:09:14.666Z,99712.11
2019-01-17T06:11:40.963Z,99712.80
2019-01-17T06:14:07.177Z,99713.20
2019-01-17T06:16:33.321Z,99715.58
2019-01-17T06:18:59.519Z,99712.11
2019-01-17T06:21:25.686Z,99712.20
2019-01-17T06:23:51.836Z,99712.67
2019-01-17T06:26:18.016Z,99715.55
2019-01-17T06:28:44.214Z,99714.70
2019-01-17T06:31:10.463Z,99716.27
2019-01-17T06:33:36.676Z,99711.47
2019-01-17T06:36:03.020Z,99714.39
2019-01-17T06:38:29.185Z,99716.42
2019-01-17T06:40:55.374Z,99714.35
2019-01-17T06:43:21.540Z,99718.84
2019-01-17T06:45:47.729Z,99721.61
2019-01-17T06:48:13.963Z,99714.08
2019-01-17T06:50:40.120Z,99716.42
2019-01-17T06:53:06.289Z,99719.56
2019-01-17T06:55:34.593Z,99718.06
2019-01-17T06:58:00.553Z,99714.81
2019-01-17T07:00:26.722Z,99719.11
2019-01-17T07:02:52.913Z,99714.50
2019-01-17T07:05:19.073Z,99716.42
2019-01-17T07:07:45.226Z,99719.72
2019-01-17T07:10:16.450Z,99723.03
2019-01-17T07:12:42.593Z,99718.87
2019-01-17T07:15:08.749Z,99713.68
2019-01-17T07:17:34.951Z,99716.59
2019-01-17T07:20:01.113Z,99716.27
2019-01-17T07:22:27.716Z,99709.38
2019-01-17T07:24:54.052Z,99703.81
2019-01-17T07:27:20.207Z,99711.49
2019-01-17T07:29:46.840Z,99707.22
2019-01-17T07:32:13.158Z,99707.20
2019-01-17T07:34:39.421Z,99713.59
2019-01-17T07:37:05.687Z,99716.52
2019-01-17T07:39:31.909Z,99713.05
2019-01-17T07:41:58.154Z,99717.91
2019-01-17T07:44:24.416Z,99725.30
2019-01-17T07:46:50.603Z,99722.27
2019-01-17T07:49:16.928Z,99723.92
2019-01-17T07:51:43.203Z,99727.08
2019-01-17T07:54:09.401Z,99730.22
2019-01-17T07:56:35.590Z,99732.06
2019-01-17T07:59:01.752Z,99738.95
2019-01-17T08:01:27.957Z,99733.50
2019-01-17T08:03:54.217Z,99734.92
2019-01-17T08:06:20.380Z,99727.36
2019-01-17T08:08:46.920Z,99738.92
2019-01-17T08:11:13.081Z,99743.28
2019-01-17T08:13:39.245Z,99741.97
2019-01-17T08:16:05.426Z,99739.74
2019-01-17T08:18:31.691Z,99747.05
2019-01-17T08:20:57.857Z,99743.25
2019-01-17T08:23:24.075Z,99741.30
2019-01-17T08:25:54.154Z,99740.55
2019-01-17T08:28:18.333Z,99746.27
2019-01-17T08:30:44.636Z,99744.65
2019-01-17T08:33:10.909Z,99740.31
2019-01-17T08:35:37.089Z,99740.26
2019-01-17T08:38:03.284Z,99735.63
2019-01-17T08:40:30.163Z,99741.39
2019-01-17T08:42:56.619Z,99739.83
2019-01-17T08:45:22.827Z,99745.33
2019-01-17T08:47:49.091Z,99741.38
2019-01-17T08:50:15.583Z,99739.08
2019-01-17T08:52:42.093Z,99743.34
2019-01-17T08:55:08.266Z,99741.29
2019-01-17T08:57:34.439Z,99744.45
2019-01-17T09:00:00.627Z,99729.88
2019-01-17T09:02:26.793Z,99735.68
2019-01-17T09:04:53.060Z,99734.55
2019-01-17T09:07:19.268Z,99725.83
2019-01-17T09:09:45.427Z,99727.87
2019-01-17T09:12:11.585Z,99719.02
2019-01-17T09:14:37.772Z,99716.98
2019-01-17T09:17:04.034Z,99716.76
2019-01-17T09:19:30.188Z,99710.41
2019-01-17T09:21:56.395Z,99709.53
2019-01-17T09:24:22.538Z,99710.56
2019-01-17T09:26:48.692Z,99707.80
2019-01-17T09:29:15.000Z,99706.09
2019-01-17T09:31:41.206Z,99692.62
2019-01-17T09:34:07.504Z,99688.41
2019-01-17T09:36:33.836Z,99690.66
2019-01-17T09:39:00.136Z,99686.55
2019-01-17T09:41:26.429Z,99677.65
2019-01-17T09:43:52.773Z,99686.39
2019-01-17T09:46:18.928Z,99684.23
2019-01-17T09:48:45.091Z,99681.83
2019-01-17T09:51:11.353Z,99672.23
2019-01-17T09:53:37.544Z,99671.63
2019-01-17T09:56:03.930Z,99667.97
2019-01-17T09:58:30.319Z,99658.17
2019-01-17T10:00:56.461Z,99654.03
2019-01-17T10:03:22.635Z,99657.37
2019-01-17T10:05:49.144Z,99655.09
2019-01-17T10:08:15.295Z,99650.25
2019-01-17T10:10:41.489Z,99646.44
2019-01-17T10:13:07.775Z,99642.73
2019-01-17T10:15:49.586Z,99640.14
2019-01-17T10:18:51.418Z,99633.41
2019-01-17T10:21:45.833Z,99632.22
2019-01-17T10:24:18.412Z,99631.25
2019-01-17T10:27:00.460Z,99621.76
2019-01-17T10:29:42.095Z,99618.98
2019-01-17T10:32:20.808Z,99619.36
2019-01-17T10:35:11.929Z,99613.19
2019-01-17T10:37:56.706Z,99606.83
2019-01-17T10:40:35.504Z,99602.92
2019-01-17T10:43:14.274Z,99605.05
2019-01-17T10:46:12.628Z,99600.14
2019-01-17T10:48:57.598Z,99595.64
2019-01-17T10:51:27.496Z,99597.59
2019-01-17T10:54:10.249Z,99592.80
2019-01-17T10:56:43.208Z,99575.59
2019-01-17T10:59:13.104Z,99573.21
2019-01-17T11:01:59.770Z,99566.45
2019-01-17T11:04:47.610Z,99565.83
2019-01-17T11:07:38.117Z,99569.25
2019-01-17T11:10:31.059Z,99567.16
2019-01-17T11:13:09.646Z,99567.02
2019-01-17T11:15:42.440Z,99570.70
2019-01-17T11:18:21.028Z,99554.71
2019-01-17T11:21:05.682Z,99565.25
2019-01-17T11:23:47.710Z,99561.28
2019-01-17T11:26:34.454Z,99561.27
2019-01-17T11:29:10.843Z,99561.42
2019-01-17T11:31:43.550Z,99544.03
2019-01-17T11:34:37.248Z,99540.53
2019-01-17T11:37:30.978Z,99549.13
2019-01-17T11:40:09.760Z,99542.71
2019-01-17T11:42:45.412Z,99539.40
2019-01-17T11:45:17.736Z,99546.06
2019-01-17T11:47:53.497Z,99544.49
2019-01-17T11:51:01.447Z,99541.52
2019-01-17T11:53:43.402Z,99541.81
2019-01-17T11:56:19.330Z,99530.00
2019-01-17T11:58:52.248Z,99532.73
2019-01-17T12:01:35.889Z,99527.20
2019-01-17T12:04:08.377Z,99526.00
2019-01-17T12:06:34.705Z,99528.53
2019-01-17T12:09:08.422Z,99528.80
2019-01-17T12:11:34.830Z,99523.45
2019-01-17T12:14:01.072Z,99524.72
2019-01-17T12:16:27.285Z,99535.63
2019-01-17T12:18:53.544Z,99530.08
2019-01-17T12:21:21.074Z,99531.41
2019-01-17T12:23:47.304Z,99530.61
2019-01-17T12:26:13.456Z,99528.05
2019-01-17T12:28:39.623Z,99527.25
2019-01-17T12:31:05.855Z,99517.35
2019-01-17T12:33:32.114Z,99526.55
2019-01-17T12:35:59.290Z,99525.00
2019-01-17T12:38:25.483Z,99520.11
2019-01-17T12:40:51.632Z,99525.91
2019-01-17T12:43:17.890Z,99515.92
2019-01-17T12:45:44.101Z,99509.53
2019-01-17T12:48:10.435Z,99519.34
2019-01-17T12:50:36.758Z,99513.16
2019-01-17T12:53:02.947Z,99505.93
2019-01-17T12:55:31.031Z,99506.91
2019-01-17T12:58:03.154Z,99508.45
2019-01-17T13:00:29.332Z,99513.89
2019-01-17T13:03:00.028Z,99505.75
2019-01-17T13:05:26.239Z,99513.89
2019-01-17T13:07:52.424Z,99517.35
2019-01-17T13:10:18.756Z,99512.52
2019-01-17T13:12:44.918Z,99505.91
2019-01-17T13:15:11.708Z,99508.59
2019-01-17T13:17:37.981Z,99508.23
2019-01-17T13:20:10.887Z,99511.73
2019-01-17T13:22:37.249Z,99507.52
2019-01-17T13:25:10.045Z,99502.07
2019-01-17T13:27:36.201Z,99506.80
2019-01-17T13:30:07.348Z,99517.86
2019-01-17T13:32:33.555Z,99508.31
2019-01-17T13:34:59.720Z,99513.03
2019-01-17T13:37:25.925Z,99507.77
2019-01-17T13:39:52.083Z,99510.59
2019-01-17T13:42:20.889Z,99515.75
2019-01-17T13:44:46.355Z,99503.69
2019-01-17T13:47:12.503Z,99509.28
2019-01-17T13:49:38.661Z,99506.37
2019-01-17T13:52:04.857Z,99501.94
2019-01-17T13:54:31.021Z,99491.02
2019-01-17T13:56:57.278Z,99492.72
2019-01-17T13:59:23.535Z,99493.78
2019-01-17T14:01:49.824Z,99494.77
2019-01-17T14:04:15.980Z,99494.67
2019-01-17T14:06:42.209Z,99491.89
2019-01-17T14:09:08.370Z,99492.73
2019-01-17T14:11:35.014Z,99487.90
2019-01-17T14:14:01.213Z,99488.38
2019-01-17T14:16:27.372Z,99486.06
2019-01-17T14:18:53.533Z,99488.14
2019-01-17T14:21:25.423Z,99490.06
2019-01-17T14:23:48.200Z,99485.38
2019-01-17T14:26:14.349Z,99489.75
2019-01-17T14:28:40.534Z,99495.10
2019-01-17T14:31:06.694Z,99488.79
2019-01-17T14:33:32.967Z,99490.67
2019-01-17T14:35:59.190Z,99491.17
2019-01-17T14:38:25.470Z,99491.97
2019-01-17T14:40:51.731Z,99498.28
2019-01-17T14:43:17.941Z,99498.61
2019-01-17T14:45:44.091Z,99497.82
2019-01-17T14:48:10.244Z,99500.72
2019-01-17T14:50:36.426Z,99502.61
2019-01-17T14:53:02.596Z,99510.77
2019-01-17T14:55:29.156Z,99506.92
2019-01-17T14:57:55.366Z,99514.63
2019-01-17T15:00:26.778Z,99518.03
2019-01-17T15:02:52.947Z,99516.12
2019-01-17T15:05:19.235Z,99515.04
2019-01-17T15:07:45.397Z,99527.25
2019-01-17T15:10:14.873Z,99519.98
2019-01-17T15:12:41.063Z,99527.68
2019-01-17T15:15:08.524Z,99531.47
2019-01-17T15:17:35.978Z,99529.86
2019-01-17T15:20:05.105Z,99536.04
2019-01-17T15:22:31.283Z,99530.67
2019-01-17T15:24:57.446Z,99525.85
2019-01-17T15:27:27.321Z,99531.14
2019-01-17T15:29:51.908Z,99528.80
2019-01-17T15:32:18.167Z,99533.81
2019-01-17T15:34:44.361Z,99538.23
2019-01-17T15:37:10.519Z,99539.39
2019-01-17T15:39:36.696Z,99537.47
2019-01-17T15:42:02.892Z,99537.56
2019-01-17T15:44:29.051Z,99541.48
2019-01-17T15:46:55.315Z,99544.45
2019-01-17T15:49:21.503Z,99543.61
2019-01-17T15:51:47.840Z,99551.87
2019-01-17T15:54:14.027Z,99553.65
2019-01-17T15:56:42.055Z,99543.65
2019-01-17T15:59:23.092Z,99548.59
2019-01-17T16:01:46.553Z,99547.80
2019-01-17T16:04:12.711Z,99553.91
2019-01-17T16:06:38.882Z,99553.66
2019-01-17T16:09:06.976Z,99553.72
2019-01-17T16:11:33.237Z,99551.20
2019-01-17T16:13:59.495Z,99555.43
2019-01-17T16:16:25.807Z,99553.44
2019-01-17T16:18:51.969Z,99560.22
2019-01-17T16:21:20.894Z,99559.29
2019-01-17T16:23:47.100Z,99562.70
2019-01-17T16:26:13.254Z,99562.85
2019-01-17T16:28:39.760Z,99567.53
2019-01-17T16:31:05.925Z,99564.74
2019-01-17T16:33:34.237Z,99570.72
2019-01-17T16:36:00.423Z,99570.37
2019-01-17T16:38:26.591Z,99567.84
2019-01-17T16:40:52.754Z,99567.34
2019-01-17T16:43:18.915Z,99573.51
2019-01-17T16:45:45.104Z,99577.86
2019-01-17T16:48:11.388Z,99579.66
2019-01-17T16:50:37.637Z,99575.78
2019-01-17T16:53:03.850Z,99577.84
2019-01-17T16:55:30.022Z,99577.38
2019-01-17T16:57:56.283Z,99573.05
2019-01-17T17:00:29.741Z,99574.44
2019-01-17T17:02:55.901Z,99579.51
2019-01-17T17:05:22.177Z,99578.70
2019-01-17T17:07:48.373Z,99579.28
2019-01-17T17:10:15.098Z,99580.02
2019-01-17T17:12:41.851Z,99585.77
2019-01-17T17:15:12.187Z,99585.95
2019-01-17T17:17:38.344Z,99584.73
2019-01-17T17:20:08.265Z,99586.11
2019-01-17T17:22:36.395Z,99584.61
2019-01-17T17:25:06.521Z,99585.55
2019-01-17T17:27:32.675Z,99581.86
2019-01-17T17:29:58.896Z,99579.16
2019-01-17T17:32:26.965Z,99585.02
2019-01-17T17:34:53.119Z,99580.39
2019-01-17T17:37:32.970Z,99579.33
2019-01-17T17:40:01.312Z,99580.50
2019-01-17T17:42:28.776Z,99580.37
2019-01-17T17:44:59.656Z,99575.78
2019-01-17T17:47:25.798Z,99572.66
2019-01-17T17:49:55.376Z,99575.61
2019-01-17T17:52:21.559Z,99577.90
2019-01-17T17:54:47.716Z,99575.84
2019-01-17T17:57:37.804Z,99570.93
2019-01-17T18:00:11.267Z,99564.87
2019-01-17T18:02:38.080Z,99567.25
2019-01-17T18:05:07.491Z,99562.39
2019-01-17T18:07:33.661Z,99563.36
2019-01-17T18:09:59.988Z,99562.95
2019-01-17T18:12:26.294Z,99564.22
2019-01-17T18:14:52.460Z,99560.59
2019-01-17T18:17:18.725Z,99565.55
2019-01-17T18:19:44.917Z,99564.20
2019-01-17T18:22:11.094Z,99557.78
2019-01-17T18:24:37.255Z,99561.88
2019-01-17T18:27:03.447Z,99555.09
2019-01-17T18:29:29.716Z,99561.65
2019-01-17T18:31:56.002Z,99564.52
2019-01-17T18:34:22.202Z,99562.07
2019-01-17T18:36:48.374Z,99563.33
2019-01-17T18:39:15.040Z,99561.22
2019-01-17T18:41:41.347Z,99566.41
2019-01-17T18:44:07.812Z,99565.09
2019-01-17T18:46:34.110Z,99568.63
2019-01-17T18:49:00.406Z,99570.36
2019-01-17T18:51:26.576Z,99568.09
2019-01-17T18:53:52.740Z,99566.67
2019-01-17T18:56:19.138Z,99570.78
2019-01-17T18:58:45.294Z,99575.26
2019-01-17T19:01:11.457Z,99571.50
2019-01-17T19:03:37.650Z,99576.42
2019-01-17T19:06:04.329Z,99575.66
2019-01-17T19:08:30.492Z,99575.07
2019-01-17T19:10:56.785Z,99575.83
2019-01-17T19:13:23.047Z,99570.94
2019-01-17T19:15:49.207Z,99575.55
2019-01-17T19:18:15.403Z,99572.00
2019-01-17T19:20:41.566Z,99576.25
2019-01-17T19:23:07.732Z,99574.04
2019-01-17T19:25:34.032Z,99574.52
2019-01-17T19:28:00.196Z,99574.73
2019-01-17T19:30:28.166Z,99571.26
2019-01-17T19:32:54.358Z,99575.35
2019-01-17T19:35:20.626Z,99577.83
2019-01-17T19:37:46.790Z,99578.02
2019-01-17T19:40:18.152Z,99580.45
2019-01-17T19:42:44.417Z,99579.67
2019-01-17T19:45:12.479Z,99576.11
2019-01-17T19:47:38.771Z,99575.96
2019-01-17T19:50:14.284Z,99575.80
2019-01-17T19:52:40.568Z,99581.04
2019-01-17T19:55:06.768Z,99576.98
2019-01-17T19:57:32.928Z,99579.28
2019-01-17T19:59:59.191Z,99589.10
2019-01-17T20:02:25.399Z,99581.33
2019-01-17T20:04:51.680Z,99575.26
2019-01-17T20:07:18.018Z,99575.86
2019-01-17T20:09:44.199Z,99564.84
2019-01-17T20:12:10.464Z,99572.02
2019-01-17T20:14:36.875Z,99574.03
2019-01-17T20:17:03.164Z,99571.98
2019-01-17T20:19:29.329Z,99567.28
2019-01-17T20:21:55.495Z,99570.22
2019-01-17T20:24:21.797Z,99568.99
2019-01-17T20:26:47.962Z,99566.89
2019-01-17T20:29:14.286Z,99561.17
2019-01-17T20:31:40.477Z,99567.22
2019-01-17T20:34:06.732Z,99562.17
2019-01-17T20:36:32.899Z,99567.75
2019-01-17T20:38:59.278Z,99570.03
2019-01-17T20:41:25.462Z,99573.70
2019-01-17T20:43:51.628Z,99569.02
2019-01-17T20:46:17.931Z,99574.16
2019-01-17T20:48:44.088Z,99562.88
2019-01-17T20:51:10.349Z,99565.06
2019-01-17T20:53:36.662Z,99564.89
2019-01-17T20:56:03.063Z,99569.83
2019-01-17T20:58:29.241Z,99566.35
2019-01-17T21:00:59.037Z,99564.96
2019-01-17T21:03:29.033Z,99568.39
2019-01-17T21:05:55.204Z,99560.63
2019-01-17T21:08:23.450Z,99560.97
2019-01-17T21:10:49.578Z,99565.87
2019-01-17T21:13:15.743Z,99557.81
2019-01-17T21:15:41.940Z,99562.91
2019-01-17T21:18:08.122Z,99557.03
2019-01-17T21:20:35.143Z,99561.80
2019-01-17T21:23:01.335Z,99566.30
2019-01-17T21:25:27.487Z,99560.50
2019-01-17T21:27:53.642Z,99556.63
2019-01-17T21:30:24.150Z,99559.97
2019-01-17T21:32:50.409Z,99557.13
2019-01-17T21:35:16.765Z,99567.20
2019-01-17T21:37:42.957Z,99564.02
2019-01-17T21:40:20.127Z,99559.62
2019-01-17T21:42:46.317Z,99554.59
2019-01-17T21:45:14.477Z,99563.97
2019-01-17T21:47:40.640Z,99553.59
2019-01-17T21:50:10.428Z,99548.70
2019-01-17T21:52:36.586Z,99550.12
2019-01-17T21:55:05.039Z,99547.38
2019-01-17T21:57:31.357Z,99550.24
2019-01-17T21:59:57.508Z,99548.25
2019-01-17T22:02:23.663Z,99542.65
2019-01-17T22:04:49.854Z,99541.80
2019-01-17T22:07:16.015Z,99536.11
2019-01-17T22:09:42.218Z,99528.11
2019-01-17T22:12:08.416Z,99528.17
2019-01-17T22:14:34.567Z,99528.36
2019-01-17T22:17:00.824Z,99536.63
2019-01-17T22:19:27.012Z,99529.86
2019-01-17T22:21:53.271Z,99531.05
2019-01-17T22:24:19.536Z,99530.55
2019-01-17T22:26:45.728Z,99526.28
2019-01-17T22:29:11.892Z,99529.85
2019-01-17T22:31:38.037Z,99530.41
2019-01-17T22:34:04.228Z,99533.09
2019-01-17T22:36:30.387Z,99527.27
2019-01-17T22:38:56.544Z,99532.34
2019-01-17T22:41:22.935Z,99527.33
2019-01-17T22:43:49.194Z,99527.41
2019-01-17T22:46:15.350Z,99532.70
2019-01-17T22:48:41.594Z,99525.93
2019-01-17T22:51:07.762Z,99526.64
2019-01-17T22:53:33.916Z,99523.03
2019-01-17T22:56:00.112Z,99532.92
2019-01-17T22:58:26.373Z,99524.31
2019-01-17T23:00:59.413Z,99517.72
2019-01-17T23:03:31.383Z,99516.92
2019-01-17T23:05:57.539Z,99514.34
2019-01-17T23:08:23.702Z,99510.91
2019-01-17T23:10:49.936Z,99506.12
2019-01-17T23:13:16.192Z,99506.02
2019-01-17T23:15:42.740Z,99509.95
2019-01-17T23:18:08.926Z,99511.55
2019-01-17T23:20:35.086Z,99504.33
2019-01-17T23:23:01.245Z,99507.63
2019-01-17T23:25:27.443Z,99507.38
2019-01-17T23:27:53.712Z,99510.00
2019-01-17T23:30:19.973Z,99511.38
2019-01-17T23:32:46.261Z,99513.58
2019-01-17T23:35:12.410Z,99514.13
2019-01-17T23:37:38.670Z,99524.03
2019-01-17T23:40:08.076Z,99521.95
2019-01-17T23:42:34.317Z,99524.12
2019-01-17T23:45:00.642Z,99535.69
2019-01-17T23:47:26.979Z,99528.63
2019-01-17T23:49:53.144Z,99535.73
2019-01-17T23:52:19.309Z,99530.67
2019-01-17T23:54:45.492Z,99520.87
2019-01-17T23:57:11.644Z,99521.70
2019-01-17T23:59:37.804Z,99529.11
